sensor_id;sensor_type;location;lat;lon;timestamp;P1;durP1;ratioP1;P2;durP2;ratioP2
31660;SDS011;18267;52.234;7.444;2024-03-23T00:54:28;13.07;;;3.10;;
31660;SDS011;18267;52.234;7.444;2024-03-23T00:56:53;11.95;;;2.88;;
31660;SDS011;18267;52.234;7.444;2024-03-23T00:59:19;7.07;;;2.17;;
31660;SDS011;18267;52.234;7.444;2024-03-23T01:01:44;12.40;;;2.65;;
31660;SDS011;18267;52.234;7.444;2024-03-23T01:04:10;4.72;;;1.75;;
31660;SDS011;18267;52.234;7.444;2024-03-23T01:06:36;7.22;;;1.58;;
31660;SDS011;18267;52.234;7.444;2024-03-23T01:09:01;6.28;;;1.88;;
31660;SDS011;18267;52.234;7.444;2024-03-23T01:11:28;10.15;;;1.77;;
31660;SDS011;18267;52.234;7.444;2024-03-23T01:13:54;11.65;;;2.05;;
31660;SDS011;18267;52.234;7.444;2024-03-23T01:16:21;7.32;;;1.40;;
31660;SDS011;18267;52.234;7.444;2024-03-23T01:18:46;12.07;;;1.70;;
31660;SDS011;18267;52.234;7.444;2024-03-23T01:21:13;5.40;;;1.55;;
31660;SDS011;18267;52.234;7.444;2024-03-23T01:23:38;8.20;;;1.20;;
31660;SDS011;18267;52.234;7.444;2024-03-23T01:26:11;6.07;;;1.45;;
31660;SDS011;18267;52.234;7.444;2024-03-23T01:28:36;6.82;;;1.33;;
31660;SDS011;18267;52.234;7.444;2024-03-23T01:31:02;11.95;;;1.77;;
31660;SDS011;18267;52.234;7.444;2024-03-23T01:33:28;11.50;;;1.48;;
31660;SDS011;18267;52.234;7.444;2024-03-23T01:35:54;7.22;;;1.88;;
31660;SDS011;18267;52.234;7.444;2024-03-23T01:38:19;5.57;;;0.95;;
31660;SDS011;18267;52.234;7.444;2024-03-23T01:40:45;8.05;;;1.45;;
31660;SDS011;18267;52.234;7.444;2024-03-23T01:43:12;2.40;;;0.73;;
31660;SDS011;18267;52.234;7.444;2024-03-23T01:45:37;7.55;;;1.50;;
31660;SDS011;18267;52.234;7.444;2024-03-23T01:48:04;11.93;;;1.40;;
31660;SDS011;18267;52.234;7.444;2024-03-23T01:50:30;6.18;;;0.90;;
31660;SDS011;18267;52.234;7.444;2024-03-23T01:52:59;9.32;;;1.40;;
31660;SDS011;18267;52.234;7.444;2024-03-23T01:55:27;5.70;;;1.23;;
31660;SDS011;18267;52.234;7.444;2024-03-23T01:57:53;5.10;;;1.20;;
31660;SDS011;18267;52.234;7.444;2024-03-23T02:00:23;12.25;;;1.13;;
31660;SDS011;18267;52.234;7.444;2024-03-23T02:02:49;3.80;;;0.88;;
31660;SDS011;18267;52.234;7.444;2024-03-23T02:05:14;9.35;;;1.13;;
31660;SDS011;18267;52.234;7.444;2024-03-23T02:07:45;7.85;;;1.40;;
31660;SDS011;18267;52.234;7.444;2024-03-23T02:10:11;7.75;;;1.15;;
31660;SDS011;18267;52.234;7.444;2024-03-23T02:12:39;7.57;;;1.40;;
31660;SDS011;18267;52.234;7.444;2024-03-23T02:15:05;8.20;;;1.30;;
31660;SDS011;18267;52.234;7.444;2024-03-23T02:17:33;10.43;;;1.88;;
31660;SDS011;18267;52.234;7.444;2024-03-23T02:19:59;9.77;;;1.45;;
31660;SDS011;18267;52.234;7.444;2024-03-23T02:22:25;13.70;;;1.40;;
31660;SDS011;18267;52.234;7.444;2024-03-23T02:24:59;8.60;;;1.38;;
31660;SDS011;18267;52.234;7.444;2024-03-23T02:27:24;3.42;;;1.00;;
31660;SDS011;18267;52.234;7.444;2024-03-23T02:29:51;9.73;;;1.50;;
31660;SDS011;18267;52.234;7.444;2024-03-23T02:32:16;9.65;;;1.58;;
31660;SDS011;18267;52.234;7.444;2024-03-23T02:34:42;14.55;;;1.70;;
31660;SDS011;18267;52.234;7.444;2024-03-23T02:37:13;11.90;;;1.30;;
31660;SDS011;18267;52.234;7.444;2024-03-23T02:39:39;8.18;;;1.50;;
31660;SDS011;18267;52.234;7.444;2024-03-23T02:42:08;11.43;;;1.63;;
31660;SDS011;18267;52.234;7.444;2024-03-23T02:44:34;9.77;;;2.10;;
31660;SDS011;18267;52.234;7.444;2024-03-23T02:46:59;14.30;;;2.05;;
31660;SDS011;18267;52.234;7.444;2024-03-23T02:49:25;6.85;;;1.83;;
31660;SDS011;18267;52.234;7.444;2024-03-23T02:51:51;9.95;;;1.85;;
31660;SDS011;18267;52.234;7.444;2024-03-23T02:54:17;14.85;;;2.28;;
31660;SDS011;18267;52.234;7.444;2024-03-23T02:56:42;8.43;;;2.08;;
31660;SDS011;18267;52.234;7.444;2024-03-23T02:59:08;6.95;;;2.45;;
31660;SDS011;18267;52.234;7.444;2024-03-23T03:01:35;10.75;;;2.65;;
31660;SDS011;18267;52.234;7.444;2024-03-23T03:04:00;12.95;;;2.50;;
31660;SDS011;18267;52.234;7.444;2024-03-23T03:06:26;15.45;;;3.08;;
31660;SDS011;18267;52.234;7.444;2024-03-23T03:08:52;13.68;;;2.60;;
31660;SDS011;18267;52.234;7.444;2024-03-23T03:11:18;10.32;;;1.70;;
31660;SDS011;18267;52.234;7.444;2024-03-23T03:13:44;11.43;;;2.90;;
31660;SDS011;18267;52.234;7.444;2024-03-23T03:16:10;15.80;;;2.65;;
31660;SDS011;18267;52.234;7.444;2024-03-23T03:18:36;10.55;;;2.63;;
31660;SDS011;18267;52.234;7.444;2024-03-23T03:21:02;13.95;;;2.75;;
31660;SDS011;18267;52.234;7.444;2024-03-23T03:23:30;17.95;;;3.50;;
31660;SDS011;18267;52.234;7.444;2024-03-23T03:25:55;9.05;;;2.85;;
31660;SDS011;18267;52.234;7.444;2024-03-23T03:28:22;16.42;;;2.88;;
31660;SDS011;18267;52.234;7.444;2024-03-23T03:30:48;17.25;;;3.50;;
31660;SDS011;18267;52.234;7.444;2024-03-23T03:33:14;14.02;;;3.42;;
31660;SDS011;18267;52.234;7.444;2024-03-23T03:35:39;11.02;;;3.20;;
31660;SDS011;18267;52.234;7.444;2024-03-23T03:38:05;9.50;;;2.40;;
31660;SDS011;18267;52.234;7.444;2024-03-23T03:40:30;25.13;;;4.13;;
31660;SDS011;18267;52.234;7.444;2024-03-23T03:42:56;17.23;;;3.20;;
31660;SDS011;18267;52.234;7.444;2024-03-23T03:45:21;12.68;;;3.53;;
31660;SDS011;18267;52.234;7.444;2024-03-23T03:47:47;16.05;;;3.42;;
31660;SDS011;18267;52.234;7.444;2024-03-23T03:50:12;12.65;;;3.22;;
31660;SDS011;18267;52.234;7.444;2024-03-23T03:52:38;23.13;;;3.10;;
31660;SDS011;18267;52.234;7.444;2024-03-23T03:55:06;16.42;;;3.53;;
31660;SDS011;18267;52.234;7.444;2024-03-23T03:57:37;15.18;;;3.40;;
31660;SDS011;18267;52.234;7.444;2024-03-23T04:00:04;14.35;;;3.58;;
31660;SDS011;18267;52.234;7.444;2024-03-23T04:02:30;13.95;;;3.40;;
31660;SDS011;18267;52.234;7.444;2024-03-23T04:04:57;9.07;;;2.95;;
31660;SDS011;18267;52.234;7.444;2024-03-23T04:07:23;15.48;;;3.65;;
31660;SDS011;18267;52.234;7.444;2024-03-23T04:09:49;14.10;;;3.42;;
31660;SDS011;18267;52.234;7.444;2024-03-23T04:12:14;17.83;;;3.65;;
31660;SDS011;18267;52.234;7.444;2024-03-23T04:14:40;15.88;;;4.18;;
31660;SDS011;18267;52.234;7.444;2024-03-23T04:17:06;15.50;;;3.72;;
31660;SDS011;18267;52.234;7.444;2024-03-23T04:19:33;26.58;;;4.68;;
31660;SDS011;18267;52.234;7.444;2024-03-23T04:21:59;21.20;;;4.90;;
31660;SDS011;18267;52.234;7.444;2024-03-23T04:24:24;20.25;;;4.18;;
31660;SDS011;18267;52.234;7.444;2024-03-23T04:26:51;19.45;;;4.82;;
31660;SDS011;18267;52.234;7.444;2024-03-23T04:29:17;23.90;;;4.65;;
31660;SDS011;18267;52.234;7.444;2024-03-23T04:31:43;22.08;;;5.10;;
31660;SDS011;18267;52.234;7.444;2024-03-23T04:34:08;18.73;;;4.60;;
31660;SDS011;18267;52.234;7.444;2024-03-23T04:36:34;20.73;;;4.93;;
31660;SDS011;18267;52.234;7.444;2024-03-23T04:39:00;23.08;;;4.97;;
31660;SDS011;18267;52.234;7.444;2024-03-23T04:41:26;24.05;;;5.43;;
31660;SDS011;18267;52.234;7.444;2024-03-23T04:43:52;24.58;;;5.82;;
31660;SDS011;18267;52.234;7.444;2024-03-23T04:46:17;33.30;;;5.82;;
31660;SDS011;18267;52.234;7.444;2024-03-23T04:48:43;28.17;;;5.47;;
31660;SDS011;18267;52.234;7.444;2024-03-23T04:51:09;19.25;;;4.75;;
31660;SDS011;18267;52.234;7.444;2024-03-23T04:53:39;31.30;;;5.70;;
31660;SDS011;18267;52.234;7.444;2024-03-23T04:56:04;23.80;;;5.43;;
31660;SDS011;18267;52.234;7.444;2024-03-23T04:58:30;22.02;;;4.93;;
31660;SDS011;18267;52.234;7.444;2024-03-23T05:00:56;16.20;;;4.70;;
31660;SDS011;18267;52.234;7.444;2024-03-23T05:03:23;26.33;;;5.03;;
31660;SDS011;18267;52.234;7.444;2024-03-23T05:05:49;24.95;;;5.38;;
31660;SDS011;18267;52.234;7.444;2024-03-23T05:08:15;33.00;;;5.95;;
31660;SDS011;18267;52.234;7.444;2024-03-23T05:10:42;26.30;;;6.05;;
31660;SDS011;18267;52.234;7.444;2024-03-23T05:13:08;16.00;;;4.97;;
31660;SDS011;18267;52.234;7.444;2024-03-23T05:15:34;22.98;;;5.47;;
31660;SDS011;18267;52.234;7.444;2024-03-23T05:18:00;23.13;;;6.00;;
31660;SDS011;18267;52.234;7.444;2024-03-23T05:20:26;29.77;;;5.78;;
31660;SDS011;18267;52.234;7.444;2024-03-23T05:22:51;15.85;;;5.45;;
31660;SDS011;18267;52.234;7.444;2024-03-23T05:25:17;29.75;;;6.43;;
31660;SDS011;18267;52.234;7.444;2024-03-23T05:27:43;17.70;;;5.50;;
31660;SDS011;18267;52.234;7.444;2024-03-23T05:30:20;24.00;;;5.50;;
31660;SDS011;18267;52.234;7.444;2024-03-23T05:35:38;25.55;;;5.78;;
31660;SDS011;18267;52.234;7.444;2024-03-23T05:38:04;27.48;;;5.55;;
31660;SDS011;18267;52.234;7.444;2024-03-23T05:43:31;28.63;;;6.00;;
31660;SDS011;18267;52.234;7.444;2024-03-23T05:45:57;25.15;;;5.90;;
31660;SDS011;18267;52.234;7.444;2024-03-23T05:48:25;21.10;;;5.85;;
31660;SDS011;18267;52.234;7.444;2024-03-23T05:50:51;25.67;;;6.80;;
31660;SDS011;18267;52.234;7.444;2024-03-23T05:53:17;23.73;;;5.50;;
31660;SDS011;18267;52.234;7.444;2024-03-23T05:55:49;20.10;;;5.57;;
31660;SDS011;18267;52.234;7.444;2024-03-23T05:58:16;24.58;;;6.15;;
31660;SDS011;18267;52.234;7.444;2024-03-23T06:00:43;28.95;;;6.20;;
31660;SDS011;18267;52.234;7.444;2024-03-23T06:03:10;20.92;;;6.05;;
31660;SDS011;18267;52.234;7.444;2024-03-23T06:05:39;26.77;;;6.78;;
31660;SDS011;18267;52.234;7.444;2024-03-23T06:08:05;26.63;;;6.65;;
31660;SDS011;18267;52.234;7.444;2024-03-23T06:10:31;26.02;;;6.25;;
31660;SDS011;18267;52.234;7.444;2024-03-23T06:12:57;19.58;;;7.43;;
31660;SDS011;18267;52.234;7.444;2024-03-23T06:15:24;23.95;;;7.15;;
31660;SDS011;18267;52.234;7.444;2024-03-23T06:17:50;27.42;;;6.32;;
31660;SDS011;18267;52.234;7.444;2024-03-23T06:20:15;20.60;;;7.28;;
31660;SDS011;18267;52.234;7.444;2024-03-23T06:22:41;25.77;;;6.32;;
31660;SDS011;18267;52.234;7.444;2024-03-23T06:25:07;32.30;;;7.72;;
31660;SDS011;18267;52.234;7.444;2024-03-23T06:27:34;36.58;;;7.60;;
31660;SDS011;18267;52.234;7.444;2024-03-23T06:30:00;24.67;;;8.23;;
31660;SDS011;18267;52.234;7.444;2024-03-23T06:32:27;25.60;;;7.72;;
31660;SDS011;18267;52.234;7.444;2024-03-23T06:34:53;36.83;;;8.43;;
31660;SDS011;18267;52.234;7.444;2024-03-23T06:37:19;20.40;;;6.93;;
31660;SDS011;18267;52.234;7.444;2024-03-23T06:39:45;32.47;;;8.27;;
31660;SDS011;18267;52.234;7.444;2024-03-23T06:42:11;23.85;;;7.43;;
31660;SDS011;18267;52.234;7.444;2024-03-23T06:44:37;26.60;;;7.22;;
31660;SDS011;18267;52.234;7.444;2024-03-23T06:47:05;31.67;;;9.68;;
31660;SDS011;18267;52.234;7.444;2024-03-23T06:49:31;31.92;;;8.93;;
31660;SDS011;18267;52.234;7.444;2024-03-23T06:51:59;31.90;;;8.73;;
31660;SDS011;18267;52.234;7.444;2024-03-23T06:54:26;19.58;;;7.10;;
31660;SDS011;18267;52.234;7.444;2024-03-23T06:56:51;24.88;;;7.50;;
31660;SDS011;18267;52.234;7.444;2024-03-23T06:59:22;22.33;;;7.30;;
31660;SDS011;18267;52.234;7.444;2024-03-23T07:01:53;27.98;;;7.93;;
31660;SDS011;18267;52.234;7.444;2024-03-23T07:04:21;32.92;;;7.57;;
31660;SDS011;18267;52.234;7.444;2024-03-23T07:06:48;23.85;;;6.93;;
31660;SDS011;18267;52.234;7.444;2024-03-23T07:09:22;18.98;;;6.13;;
31660;SDS011;18267;52.234;7.444;2024-03-23T07:11:51;28.58;;;7.35;;
31660;SDS011;18267;52.234;7.444;2024-03-23T07:14:24;22.52;;;6.93;;
31660;SDS011;18267;52.234;7.444;2024-03-23T07:16:54;19.17;;;6.85;;
31660;SDS011;18267;52.234;7.444;2024-03-23T07:19:20;29.95;;;6.88;;
31660;SDS011;18267;52.234;7.444;2024-03-23T07:21:45;31.58;;;6.30;;
31660;SDS011;18267;52.234;7.444;2024-03-23T07:24:12;21.48;;;7.88;;
31660;SDS011;18267;52.234;7.444;2024-03-23T07:26:39;26.95;;;6.60;;
31660;SDS011;18267;52.234;7.444;2024-03-23T07:29:06;20.48;;;6.20;;
31660;SDS011;18267;52.234;7.444;2024-03-23T07:31:32;25.77;;;6.63;;
31660;SDS011;18267;52.234;7.444;2024-03-23T07:33:58;19.95;;;6.00;;
31660;SDS011;18267;52.234;7.444;2024-03-23T07:36:23;22.77;;;5.30;;
31660;SDS011;18267;52.234;7.444;2024-03-23T07:38:52;15.07;;;6.07;;
31660;SDS011;18267;52.234;7.444;2024-03-23T07:41:18;16.42;;;4.80;;
31660;SDS011;18267;52.234;7.444;2024-03-23T07:43:45;17.33;;;4.53;;
31660;SDS011;18267;52.234;7.444;2024-03-23T07:46:12;13.35;;;4.47;;
31660;SDS011;18267;52.234;7.444;2024-03-23T07:48:39;11.90;;;4.38;;
31660;SDS011;18267;52.234;7.444;2024-03-23T07:53:44;21.75;;;4.10;;
31660;SDS011;18267;52.234;7.444;2024-03-23T07:56:13;22.38;;;4.10;;
31660;SDS011;18267;52.234;7.444;2024-03-23T07:58:40;19.65;;;4.70;;
31660;SDS011;18267;52.234;7.444;2024-03-23T08:01:07;12.70;;;4.03;;
31660;SDS011;18267;52.234;7.444;2024-03-23T08:03:35;17.20;;;4.07;;
31660;SDS011;18267;52.234;7.444;2024-03-23T08:06:06;15.93;;;3.97;;
31660;SDS011;18267;52.234;7.444;2024-03-23T08:08:43;10.10;;;3.63;;
31660;SDS011;18267;52.234;7.444;2024-03-23T08:11:12;14.85;;;3.85;;
31660;SDS011;18267;52.234;7.444;2024-03-23T08:13:39;12.15;;;3.53;;
31660;SDS011;18267;52.234;7.444;2024-03-23T08:16:06;11.98;;;3.45;;
31660;SDS011;18267;52.234;7.444;2024-03-23T08:18:31;10.82;;;3.95;;
31660;SDS011;18267;52.234;7.444;2024-03-23T08:20:58;15.80;;;3.53;;
31660;SDS011;18267;52.234;7.444;2024-03-23T08:23:24;21.33;;;4.65;;
31660;SDS011;18267;52.234;7.444;2024-03-23T08:25:52;15.98;;;3.83;;
31660;SDS011;18267;52.234;7.444;2024-03-23T08:28:22;9.43;;;2.75;;
31660;SDS011;18267;52.234;7.444;2024-03-23T08:30:48;13.00;;;3.22;;
31660;SDS011;18267;52.234;7.444;2024-03-23T08:33:14;9.57;;;3.22;;
31660;SDS011;18267;52.234;7.444;2024-03-23T08:35:40;4.75;;;2.88;;
31660;SDS011;18267;52.234;7.444;2024-03-23T08:38:06;11.88;;;3.35;;
31660;SDS011;18267;52.234;7.444;2024-03-23T08:40:32;20.27;;;3.80;;
31660;SDS011;18267;52.234;7.444;2024-03-23T08:43:00;5.53;;;3.25;;
31660;SDS011;18267;52.234;7.444;2024-03-23T08:45:25;11.93;;;2.70;;
31660;SDS011;18267;52.234;7.444;2024-03-23T08:47:51;17.17;;;3.03;;
31660;SDS011;18267;52.234;7.444;2024-03-23T08:50:17;14.68;;;3.55;;
31660;SDS011;18267;52.234;7.444;2024-03-23T08:52:44;14.55;;;3.63;;
31660;SDS011;18267;52.234;7.444;2024-03-23T08:55:09;16.77;;;3.55;;
31660;SDS011;18267;52.234;7.444;2024-03-23T08:57:35;16.50;;;4.65;;
31660;SDS011;18267;52.234;7.444;2024-03-23T09:00:02;16.08;;;3.33;;
31660;SDS011;18267;52.234;7.444;2024-03-23T09:02:29;16.02;;;2.72;;
31660;SDS011;18267;52.234;7.444;2024-03-23T09:04:54;9.82;;;2.75;;
31660;SDS011;18267;52.234;7.444;2024-03-23T09:07:20;10.52;;;3.13;;
31660;SDS011;18267;52.234;7.444;2024-03-23T09:09:46;11.70;;;2.65;;
31660;SDS011;18267;52.234;7.444;2024-03-23T09:12:12;9.40;;;2.50;;
31660;SDS011;18267;52.234;7.444;2024-03-23T09:14:39;18.08;;;3.33;;
31660;SDS011;18267;52.234;7.444;2024-03-23T09:17:06;12.23;;;2.20;;
31660;SDS011;18267;52.234;7.444;2024-03-23T09:19:36;11.55;;;2.17;;
31660;SDS011;18267;52.234;7.444;2024-03-23T09:22:02;12.55;;;2.67;;
31660;SDS011;18267;52.234;7.444;2024-03-23T09:24:28;12.23;;;3.00;;
31660;SDS011;18267;52.234;7.444;2024-03-23T09:26:55;5.13;;;1.80;;
31660;SDS011;18267;52.234;7.444;2024-03-23T09:29:21;11.50;;;2.13;;
31660;SDS011;18267;52.234;7.444;2024-03-23T09:31:48;7.03;;;2.30;;
31660;SDS011;18267;52.234;7.444;2024-03-23T09:34:13;6.78;;;1.52;;
31660;SDS011;18267;52.234;7.444;2024-03-23T09:36:44;5.80;;;1.75;;
31660;SDS011;18267;52.234;7.444;2024-03-23T09:39:10;7.63;;;1.52;;
31660;SDS011;18267;52.234;7.444;2024-03-23T09:41:45;5.43;;;1.75;;
31660;SDS011;18267;52.234;7.444;2024-03-23T09:44:10;8.07;;;1.70;;
31660;SDS011;18267;52.234;7.444;2024-03-23T09:46:37;10.88;;;1.95;;
31660;SDS011;18267;52.234;7.444;2024-03-23T09:49:05;5.75;;;1.40;;
31660;SDS011;18267;52.234;7.444;2024-03-23T09:51:36;6.72;;;1.55;;
31660;SDS011;18267;52.234;7.444;2024-03-23T09:54:06;11.40;;;1.80;;
31660;SDS011;18267;52.234;7.444;2024-03-23T09:56:33;10.38;;;2.63;;
31660;SDS011;18267;52.234;7.444;2024-03-23T10:01:36;8.40;;;2.30;;
31660;SDS011;18267;52.234;7.444;2024-03-23T10:04:03;10.05;;;2.10;;
31660;SDS011;18267;52.234;7.444;2024-03-23T10:06:30;11.38;;;2.78;;
31660;SDS011;18267;52.234;7.444;2024-03-23T10:08:56;7.72;;;1.90;;
31660;SDS011;18267;52.234;7.444;2024-03-23T10:11:21;12.82;;;2.20;;
31660;SDS011;18267;52.234;7.444;2024-03-23T10:13:47;11.00;;;1.88;;
31660;SDS011;18267;52.234;7.444;2024-03-23T10:16:20;11.88;;;1.75;;
31660;SDS011;18267;52.234;7.444;2024-03-23T10:18:47;8.45;;;2.00;;
31660;SDS011;18267;52.234;7.444;2024-03-23T10:21:14;10.75;;;1.88;;
31660;SDS011;18267;52.234;7.444;2024-03-23T10:23:41;8.90;;;1.75;;
31660;SDS011;18267;52.234;7.444;2024-03-23T10:26:14;7.45;;;2.25;;
31660;SDS011;18267;52.234;7.444;2024-03-23T10:28:53;10.35;;;2.00;;
31660;SDS011;18267;52.234;7.444;2024-03-23T10:31:23;5.55;;;1.80;;
31660;SDS011;18267;52.234;7.444;2024-03-23T10:33:50;13.88;;;2.00;;
31660;SDS011;18267;52.234;7.444;2024-03-23T10:36:15;10.73;;;1.92;;
31660;SDS011;18267;52.234;7.444;2024-03-23T10:38:43;2.70;;;1.13;;
31660;SDS011;18267;52.234;7.444;2024-03-23T10:41:12;3.42;;;0.88;;
31660;SDS011;18267;52.234;7.444;2024-03-23T10:43:40;2.53;;;0.93;;
31660;SDS011;18267;52.234;7.444;2024-03-23T10:46:07;1.33;;;0.35;;
31660;SDS011;18267;52.234;7.444;2024-03-23T10:48:34;1.13;;;0.60;;
31660;SDS011;18267;52.234;7.444;2024-03-23T10:51:00;1.90;;;0.80;;
31660;SDS011;18267;52.234;7.444;2024-03-23T10:53:28;1.75;;;0.77;;
31660;SDS011;18267;52.234;7.444;2024-03-23T10:55:55;4.97;;;0.70;;
31660;SDS011;18267;52.234;7.444;2024-03-23T10:58:23;2.70;;;0.60;;
31660;SDS011;18267;52.234;7.444;2024-03-23T11:00:56;0.75;;;0.50;;
31660;SDS011;18267;52.234;7.444;2024-03-23T11:03:33;2.88;;;1.15;;
31660;SDS011;18267;52.234;7.444;2024-03-23T11:06:07;3.58;;;1.33;;
31660;SDS011;18267;52.234;7.444;2024-03-23T11:08:39;5.30;;;1.40;;
31660;SDS011;18267;52.234;7.444;2024-03-23T11:11:23;2.55;;;0.80;;
31660;SDS011;18267;52.234;7.444;2024-03-23T11:13:53;1.77;;;0.90;;
31660;SDS011;18267;52.234;7.444;2024-03-23T11:16:23;1.75;;;0.88;;
31660;SDS011;18267;52.234;7.444;2024-03-23T11:18:49;9.65;;;1.05;;
31660;SDS011;18267;52.234;7.444;2024-03-23T11:24:34;4.82;;;1.20;;
31660;SDS011;18267;52.234;7.444;2024-03-23T11:27:02;5.45;;;1.55;;
31660;SDS011;18267;52.234;7.444;2024-03-23T11:29:40;2.90;;;1.27;;
31660;SDS011;18267;52.234;7.444;2024-03-23T11:35:08;9.55;;;1.45;;
31660;SDS011;18267;52.234;7.444;2024-03-23T11:37:35;5.25;;;1.17;;
31660;SDS011;18267;52.234;7.444;2024-03-23T11:40:21;6.00;;;1.00;;
31660;SDS011;18267;52.234;7.444;2024-03-23T11:42:46;5.22;;;1.35;;
31660;SDS011;18267;52.234;7.444;2024-03-23T11:45:20;6.53;;;1.50;;
31660;SDS011;18267;52.234;7.444;2024-03-23T11:47:45;7.55;;;1.23;;
31660;SDS011;18267;52.234;7.444;2024-03-23T11:50:19;4.03;;;0.80;;
31660;SDS011;18267;52.234;7.444;2024-03-23T11:52:46;1.95;;;0.40;;
31660;SDS011;18267;52.234;7.444;2024-03-23T11:55:12;0.75;;;0.22;;
31660;SDS011;18267;52.234;7.444;2024-03-23T11:57:38;9.32;;;0.65;;
31660;SDS011;18267;52.234;7.444;2024-03-23T12:00:21;1.67;;;0.60;;
31660;SDS011;18267;52.234;7.444;2024-03-23T12:02:49;3.30;;;0.40;;
31660;SDS011;18267;52.234;7.444;2024-03-23T12:05:21;5.10;;;0.55;;
31660;SDS011;18267;52.234;7.444;2024-03-23T12:13:42;3.58;;;0.70;;
31660;SDS011;18267;52.234;7.444;2024-03-23T12:16:10;7.05;;;0.85;;
31660;SDS011;18267;52.234;7.444;2024-03-23T12:18:43;2.30;;;0.60;;
31660;SDS011;18267;52.234;7.444;2024-03-23T12:21:30;2.25;;;0.70;;
31660;SDS011;18267;52.234;7.444;2024-03-23T12:23:58;3.90;;;0.77;;
31660;SDS011;18267;52.234;7.444;2024-03-23T12:26:23;10.13;;;1.23;;
31660;SDS011;18267;52.234;7.444;2024-03-23T12:28:49;3.80;;;1.17;;
31660;SDS011;18267;52.234;7.444;2024-03-23T12:31:14;5.68;;;0.93;;
31660;SDS011;18267;52.234;7.444;2024-03-23T12:33:44;7.82;;;0.77;;
31660;SDS011;18267;52.234;7.444;2024-03-23T12:36:13;3.55;;;0.90;;
31660;SDS011;18267;52.234;7.444;2024-03-23T12:38:40;2.55;;;0.80;;
31660;SDS011;18267;52.234;7.444;2024-03-23T12:41:11;7.95;;;0.88;;
31660;SDS011;18267;52.234;7.444;2024-03-23T12:43:39;4.97;;;0.85;;
31660;SDS011;18267;52.234;7.444;2024-03-23T12:46:10;3.25;;;0.52;;
31660;SDS011;18267;52.234;7.444;2024-03-23T12:48:36;4.28;;;0.55;;
31660;SDS011;18267;52.234;7.444;2024-03-23T12:51:03;9.05;;;1.08;;
31660;SDS011;18267;52.234;7.444;2024-03-23T12:53:30;7.22;;;0.68;;
31660;SDS011;18267;52.234;7.444;2024-03-23T12:56:00;4.40;;;0.60;;
31660;SDS011;18267;52.234;7.444;2024-03-23T12:58:39;5.38;;;1.00;;
31660;SDS011;18267;52.234;7.444;2024-03-23T13:01:05;3.47;;;0.68;;
31660;SDS011;18267;52.234;7.444;2024-03-23T13:03:33;2.53;;;0.35;;
31660;SDS011;18267;52.234;7.444;2024-03-23T13:05:58;6.60;;;0.85;;
31660;SDS011;18267;52.234;7.444;2024-03-23T13:08:24;2.10;;;0.40;;
31660;SDS011;18267;52.234;7.444;2024-03-23T13:10:53;6.63;;;0.77;;
31660;SDS011;18267;52.234;7.444;2024-03-23T13:13:20;4.70;;;0.70;;
31660;SDS011;18267;52.234;7.444;2024-03-23T13:15:50;1.27;;;0.30;;
31660;SDS011;18267;52.234;7.444;2024-03-23T13:18:18;6.13;;;0.65;;
31660;SDS011;18267;52.234;7.444;2024-03-23T13:20:45;5.72;;;0.95;;
31660;SDS011;18267;52.234;7.444;2024-03-23T13:23:10;4.45;;;0.68;;
31660;SDS011;18267;52.234;7.444;2024-03-23T13:25:37;4.22;;;0.88;;
31660;SDS011;18267;52.234;7.444;2024-03-23T13:28:03;3.95;;;0.60;;
31660;SDS011;18267;52.234;7.444;2024-03-23T13:30:34;6.28;;;0.73;;
31660;SDS011;18267;52.234;7.444;2024-03-23T13:33:00;5.50;;;0.60;;
31660;SDS011;18267;52.234;7.444;2024-03-23T13:35:48;1.75;;;0.57;;
31660;SDS011;18267;52.234;7.444;2024-03-23T13:38:19;2.45;;;0.55;;
31660;SDS011;18267;52.234;7.444;2024-03-23T13:40:58;2.08;;;0.20;;
31660;SDS011;18267;52.234;7.444;2024-03-23T13:43:26;5.68;;;0.60;;
31660;SDS011;18267;52.234;7.444;2024-03-23T13:45:57;0.22;;;0.20;;
31660;SDS011;18267;52.234;7.444;2024-03-23T13:48:24;1.35;;;0.45;;
31660;SDS011;18267;52.234;7.444;2024-03-23T13:50:57;1.05;;;0.30;;
31660;SDS011;18267;52.234;7.444;2024-03-23T13:53:31;5.03;;;0.43;;
31660;SDS011;18267;52.234;7.444;2024-03-23T13:55:59;2.08;;;0.55;;
31660;SDS011;18267;52.234;7.444;2024-03-23T13:58:26;2.00;;;0.43;;
31660;SDS011;18267;52.234;7.444;2024-03-23T14:00:53;3.75;;;0.70;;
31660;SDS011;18267;52.234;7.444;2024-03-23T14:03:21;4.45;;;0.70;;
31660;SDS011;18267;52.234;7.444;2024-03-23T14:05:48;5.07;;;0.65;;
31660;SDS011;18267;52.234;7.444;2024-03-23T14:08:19;3.30;;;1.02;;
31660;SDS011;18267;52.234;7.444;2024-03-23T14:10:46;0.95;;;0.47;;
31660;SDS011;18267;52.234;7.444;2024-03-23T14:13:12;1.23;;;0.50;;
31660;SDS011;18267;52.234;7.444;2024-03-23T14:15:38;8.70;;;0.68;;
31660;SDS011;18267;52.234;7.444;2024-03-23T14:18:19;4.97;;;0.70;;
31660;SDS011;18267;52.234;7.444;2024-03-23T14:20:45;3.63;;;0.88;;
31660;SDS011;18267;52.234;7.444;2024-03-23T14:23:11;3.20;;;0.47;;
31660;SDS011;18267;52.234;7.444;2024-03-23T14:25:37;4.15;;;1.15;;
31660;SDS011;18267;52.234;7.444;2024-03-23T14:28:04;2.03;;;0.68;;
31660;SDS011;18267;52.234;7.444;2024-03-23T14:30:29;3.10;;;0.70;;
31660;SDS011;18267;52.234;7.444;2024-03-23T14:32:57;3.28;;;0.80;;
31660;SDS011;18267;52.234;7.444;2024-03-23T14:35:25;5.50;;;0.88;;
31660;SDS011;18267;52.234;7.444;2024-03-23T14:37:51;3.78;;;1.05;;
31660;SDS011;18267;52.234;7.444;2024-03-23T14:40:18;1.48;;;0.40;;
31660;SDS011;18267;52.234;7.444;2024-03-23T14:42:46;3.22;;;1.10;;
31660;SDS011;18267;52.234;7.444;2024-03-23T14:45:14;5.15;;;0.68;;
31660;SDS011;18267;52.234;7.444;2024-03-23T14:47:41;3.50;;;0.90;;
31660;SDS011;18267;52.234;7.444;2024-03-23T14:50:08;7.40;;;1.15;;
31660;SDS011;18267;52.234;7.444;2024-03-23T14:52:36;3.72;;;0.68;;
31660;SDS011;18267;52.234;7.444;2024-03-23T14:55:04;3.83;;;0.90;;
31660;SDS011;18267;52.234;7.444;2024-03-23T14:57:30;7.70;;;1.42;;
31660;SDS011;18267;52.234;7.444;2024-03-23T14:59:56;2.90;;;0.70;;
31660;SDS011;18267;52.234;7.444;2024-03-23T15:02:22;6.28;;;1.05;;
31660;SDS011;18267;52.234;7.444;2024-03-23T15:04:49;3.95;;;0.60;;
31660;SDS011;18267;52.234;7.444;2024-03-23T15:07:15;10.15;;;1.52;;
31660;SDS011;18267;52.234;7.444;2024-03-23T15:09:42;5.05;;;0.68;;
31660;SDS011;18267;52.234;7.444;2024-03-23T15:12:08;7.30;;;1.00;;
31660;SDS011;18267;52.234;7.444;2024-03-23T15:14:34;7.72;;;0.80;;
31660;SDS011;18267;52.234;7.444;2024-03-23T15:16:59;1.23;;;0.38;;
31660;SDS011;18267;52.234;7.444;2024-03-23T15:19:29;3.22;;;0.40;;
31660;SDS011;18267;52.234;7.444;2024-03-23T15:21:58;8.00;;;0.88;;
31660;SDS011;18267;52.234;7.444;2024-03-23T15:24:23;3.13;;;0.40;;
31660;SDS011;18267;52.234;7.444;2024-03-23T15:26:50;1.73;;;0.40;;
31660;SDS011;18267;52.234;7.444;2024-03-23T15:29:17;3.35;;;0.50;;
31660;SDS011;18267;52.234;7.444;2024-03-23T15:31:44;2.03;;;0.50;;
31660;SDS011;18267;52.234;7.444;2024-03-23T15:34:11;9.73;;;0.82;;
31660;SDS011;18267;52.234;7.444;2024-03-23T15:36:37;6.05;;;0.80;;
31660;SDS011;18267;52.234;7.444;2024-03-23T15:39:05;8.60;;;0.60;;
31660;SDS011;18267;52.234;7.444;2024-03-23T15:41:33;6.72;;;0.77;;
31660;SDS011;18267;52.234;7.444;2024-03-23T15:44:01;6.85;;;0.95;;
31660;SDS011;18267;52.234;7.444;2024-03-23T15:46:29;3.10;;;0.63;;
31660;SDS011;18267;52.234;7.444;2024-03-23T15:49:07;2.90;;;0.40;;
31660;SDS011;18267;52.234;7.444;2024-03-23T15:51:33;5.13;;;0.60;;
31660;SDS011;18267;52.234;7.444;2024-03-23T15:54:01;7.60;;;0.60;;
31660;SDS011;18267;52.234;7.444;2024-03-23T15:56:30;6.15;;;0.60;;
31660;SDS011;18267;52.234;7.444;2024-03-23T15:58:56;6.40;;;0.63;;